Time;durP1;ratioP1;P1;durP2;ratioP2;P2;SDS_P1;SDS_P2;PMS_P1;PMS_P2;Temp;Humidity;BMP_temperature;BMP_pressure;BME280_temperature;BME280_humidity;BME280_pressure;Samples;Min_cycle;Max_cycle;Signal;HPM_P1;HPM_P2
2022/12/09 00:04:29;;;;;;;7.17;6.57;;;3.10;99.70;;;;;;10543095;28;20195;-81
2022/12/09 00:09:33;;;;;;;6.90;6.30;;;3.10;99.60;;;;;;10580623;28;20670;-81
2022/12/09 00:14:35;;;;;;;6.90;6.20;;;3.10;99.70;;;;;;10541957;28;20562;-81
2022/12/09 00:19:37;;;;;;;6.40;5.90;;;3.10;99.70;;;;;;10581209;28;20268;-81
2022/12/09 00:24:41;;;;;;;5.73;5.30;;;3.00;99.40;;;;;;10542949;28;20207;-81
2022/12/09 00:29:43;;;;;;;5.73;5.23;;;3.00;99.90;;;;;;10580692;28;20691;-79
2022/12/09 00:34:45;;;;;;;6.73;6.23;;;3.00;99.90;;;;;;10541917;28;20207;-80
2022/12/09 00:39:49;;;;;;;6.87;6.37;;;3.00;99.90;;;;;;10579230;28;20246;-81
2022/12/09 00:44:51;;;;;;;7.50;6.80;;;3.00;99.70;;;;;;10542873;28;20241;-80
2022/12/09 00:49:54;;;;;;;6.70;6.20;;;3.00;99.90;;;;;;10559859;28;20237;-79
2022/12/09 00:54:58;;;;;;;8.87;8.10;;;3.00;99.70;;;;;;10570238;28;20194;-81
2022/12/09 01:00:00;;;;;;;8.63;7.83;;;2.90;99.90;;;;;;10541999;28;20243;-79
2022/12/09 01:05:02;;;;;;;8.90;8.10;;;2.90;99.90;;;;;;10558055;28;20264;-80
2022/12/09 01:10:07;;;;;;;22.53;16.33;;;2.90;99.90;;;;;;10545529;28;20237;-81
2022/12/09 01:15:11;;;;;;;10.00;9.10;;;2.90;99.90;;;;;;10540332;28;20200;-82
2022/12/09 01:20:14;;;;;;;9.70;8.80;;;2.90;99.90;;;;;;10543534;28;20624;-83
2022/12/09 01:25:17;;;;;;;11.57;10.57;;;2.90;99.90;;;;;;10581566;28;20310;-83
2022/12/09 01:30:34;;;;;;;9.57;8.70;;;2.80;99.90;;;;;;10549844;28;20695;-82
2022/12/09 01:35:41;;;;;;;10.80;9.70;;;2.80;99.60;;;;;;10581792;28;20186;-82
2022/12/09 01:40:51;;;;;;;9.37;8.40;;;2.70;99.90;;;;;;10559187;28;20657;-81
2022/12/09 01:45:56;;;;;;;9.00;7.80;;;2.70;99.90;;;;;;10555132;28;20352;-80
2022/12/09 01:51:01;;;;;;;7.33;6.73;;;2.70;99.60;;;;;;10581731;28;20638;-83
2022/12/09 01:56:08;;;;;;;9.67;8.77;;;2.60;99.10;;;;;;10580782;28;20198;-82
2022/12/09 02:01:11;;;;;;;9.33;8.53;;;2.50;99.90;;;;;;10540261;28;20223;-82
2022/12/09 02:06:14;;;;;;;6.93;6.40;;;2.50;99.90;;;;;;10576895;28;20250;-81
2022/12/09 02:11:28;;;;;;;8.17;7.43;;;2.40;99.90;;;;;;10525470;28;20211;-82
2022/12/09 02:16:36;;;;;;;7.47;6.87;;;2.40;99.90;;;;;;10530355;28;20287;-82
2022/12/09 02:21:45;;;;;;;7.73;7.00;;;2.40;99.90;;;;;;10587903;28;20230;-82
2022/12/09 02:27:06;;;;;;;8.57;7.77;;;2.40;99.90;;;;;;10549632;28;20575;-83
2022/12/09 02:32:32;;;;;;;8.23;7.10;;;2.40;99.90;;;;;;10509241;28;20241;-82
2022/12/09 02:37:48;;;;;;;8.70;8.00;;;2.40;99.90;;;;;;10588199;28;20635;-83
2022/12/09 02:42:51;;;;;;;8.13;7.33;;;2.40;99.90;;;;;;10553003;28;20203;-80
2022/12/09 02:47:55;;;;;;;7.83;7.13;;;2.40;99.90;;;;;;10549371;28;20329;-79
2022/12/09 02:53:04;;;;;;;7.80;7.20;;;2.40;99.40;;;;;;10577474;28;20259;-79
2022/12/09 02:58:06;;;;;;;8.00;7.30;;;2.30;99.70;;;;;;10579575;28;20234;-79
2022/12/09 03:03:17;;;;;;;7.50;6.80;;;2.30;99.50;;;;;;10548764;28;20195;-79
2022/12/09 03:08:30;;;;;;;7.77;7.07;;;2.30;99.90;;;;;;10581516;28;20226;-81
2022/12/09 03:13:43;;;;;;;7.90;7.20;;;2.40;99.90;;;;;;10547161;28;20188;-79
2022/12/09 03:18:49;;;;;;;9.00;8.10;;;2.40;99.90;;;;;;10553278;28;20885;-79
2022/12/09 03:23:56;;;;;;;8.30;7.60;;;2.40;99.90;;;;;;10578786;28;20261;-79
2022/12/09 03:29:01;;;;;;;8.67;7.97;;;2.40;99.90;;;;;;10551894;28;20226;-81
2022/12/09 03:34:06;;;;;;;9.20;7.90;;;2.40;99.90;;;;;;10577064;28;20192;-80
2022/12/09 03:39:13;;;;;;;8.83;8.13;;;2.30;99.60;;;;;;10551699;28;20239;-80
2022/12/09 03:44:19;;;;;;;9.33;8.53;;;2.30;99.80;;;;;;10580962;28;20203;-80
2022/12/09 03:49:21;;;;;;;10.53;9.63;;;2.30;99.90;;;;;;10580398;28;20591;-79
2022/12/09 03:54:28;;;;;;;12.23;9.10;;;2.30;99.90;;;;;;10558427;28;20192;-79
2022/12/09 03:59:33;;;;;;;10.13;9.13;;;2.30;99.90;;;;;;10549008;28;20207;-79
2022/12/09 04:04:39;;;;;;;9.50;8.70;;;2.30;99.90;;;;;;10574586;28;20199;-81
2022/12/09 04:09:43;;;;;;;10.80;9.80;;;2.20;99.90;;;;;;10548461;28;20695;-80
2022/12/09 04:14:45;;;;;;;7.63;7.03;;;2.20;99.90;;;;;;10574259;28;20195;-82
2022/12/09 04:19:47;;;;;;;9.10;8.33;;;2.20;99.90;;;;;;10552711;28;20602;-81
2022/12/09 04:24:50;;;;;;;10.60;9.70;;;2.20;99.90;;;;;;10566898;28;20194;-79
2022/12/09 04:29:52;;;;;;;10.57;9.67;;;2.20;99.90;;;;;;10546805;28;20226;-80
2022/12/09 04:34:54;;;;;;;10.20;9.40;;;2.20;99.90;;;;;;10562698;28;20199;-82
2022/12/09 04:39:58;;;;;;;9.87;9.07;;;2.30;99.90;;;;;;10549829;28;20750;-83
2022/12/09 04:45:00;;;;;;;9.43;8.70;;;2.30;99.90;;;;;;10556912;28;20215;-83
2022/12/09 04:50:02;;;;;;;10.60;9.60;;;2.30;99.90;;;;;;10586233;28;20315;-82
2022/12/09 04:55:06;;;;;;;8.90;8.20;;;2.30;99.90;;;;;;10565970;28;20260;-81
2022/12/09 05:00:10;;;;;;;9.73;8.87;;;2.30;99.90;;;;;;10583856;28;20218;-82
2022/12/09 05:05:12;;;;;;;10.43;9.53;;;2.40;99.90;;;;;;10583101;28;20198;-82
2022/12/09 05:10:18;;;;;;;10.17;9.17;;;2.40;99.90;;;;;;10552468;28;20636;-82
2022/12/09 05:15:20;;;;;;;9.80;8.80;;;2.40;99.90;;;;;;10573038;28;20198;-82
2022/12/09 05:20:26;;;;;;;8.97;8.27;;;2.40;99.90;;;;;;10586322;28;20262;-82
2022/12/09 05:25:30;;;;;;;8.67;7.97;;;2.40;99.90;;;;;;10551547;28;20286;-83
2022/12/09 05:30:39;;;;;;;8.83;8.03;;;2.40;99.70;;;;;;10585612;28;20672;-83
2022/12/09 05:41:28;;;;;;;9.60;8.70;;;2.40;99.90;;;;;;10569866;28;20224;-82
2022/12/09 05:46:30;;;;;;;9.30;8.50;;;2.40;99.90;;;;;;10552016;28;20211;-82
2022/12/09 05:51:32;;;;;;;10.23;9.30;;;2.40;99.90;;;;;;10576346;28;20229;-82
2022/12/09 05:56:36;;;;;;;10.23;9.30;;;2.40;99.90;;;;;;10582112;28;20666;-81
2022/12/09 06:01:38;;;;;;;11.13;10.03;;;2.40;99.90;;;;;;10551110;28;20207;-80
2022/12/09 06:06:40;;;;;;;12.43;10.23;;;2.40;99.90;;;;;;10575045;28;20254;-80
2022/12/09 06:11:43;;;;;;;12.50;9.60;;;2.50;99.90;;;;;;10547792;28;20289;-82
2022/12/09 06:16:45;;;;;;;10.83;9.83;;;2.50;99.90;;;;;;10536028;28;20218;-80
2022/12/09 06:21:47;;;;;;;11.10;10.10;;;2.60;99.90;;;;;;10527477;28;20216;-79
2022/12/09 06:26:53;;;;;;;10.87;9.77;;;2.60;99.90;;;;;;10544395;28;20212;-82
2022/12/09 06:31:55;;;;;;;12.73;11.40;;;2.60;99.70;;;;;;10521245;28;20212;-80
2022/12/09 06:36:57;;;;;;;11.63;10.53;;;2.50;99.90;;;;;;10535703;28;20279;-77
2022/12/09 06:42:00;;;;;;;12.43;11.23;;;2.50;99.90;;;;;;10522964;28;20326;-78
2022/12/09 06:47:02;;;;;;;11.90;10.80;;;2.60;99.90;;;;;;10542096;28;20241;-78
2022/12/09 06:52:05;;;;;;;11.70;10.60;;;2.60;99.90;;;;;;10574660;28;20225;-78
2022/12/09 06:57:08;;;;;;;14.13;12.70;;;2.70;99.90;;;;;;10569640;28;20182;-81
2022/12/09 07:02:11;;;;;;;14.87;11.63;;;2.70;99.90;;;;;;10536536;28;20286;-81
2022/12/09 07:07:14;;;;;;;13.97;12.33;;;2.70;99.90;;;;;;10522498;28;20411;-78
2022/12/09 07:12:17;;;;;;;13.03;11.70;;;2.70;99.90;;;;;;10586233;28;20216;-81
2022/12/09 07:17:21;;;;;;;13.60;12.47;;;2.80;99.90;;;;;;10525094;28;20286;-81
2022/12/09 07:22:23;;;;;;;13.17;11.97;;;2.90;99.90;;;;;;10601366;28;20211;-81
2022/12/09 07:27:26;;;;;;;13.77;12.37;;;3.00;99.90;;;;;;10551584;28;20283;-81
2022/12/09 07:32:28;;;;;;;14.37;12.87;;;3.10;99.90;;;;;;10583502;28;20370;-80
2022/12/09 07:37:30;;;;;;;14.13;12.83;;;3.10;99.90;;;;;;10549751;28;20217;-81
2022/12/09 07:42:34;;;;;;;13.50;12.10;;;3.20;99.90;;;;;;10587201;28;20223;-80
2022/12/09 07:47:39;;;;;;;14.20;12.73;;;3.20;99.90;;;;;;10550391;28;20211;-80
2022/12/09 07:52:41;;;;;;;14.80;13.27;;;3.30;99.90;;;;;;10583894;28;20227;-81
2022/12/09 07:57:44;;;;;;;15.70;14.10;;;3.40;99.90;;;;;;10593598;28;20187;-81
2022/12/09 08:02:46;;;;;;;16.63;13.00;;;3.50;99.90;;;;;;10572868;28;20206;-81
2022/12/09 08:07:48;;;;;;;15.90;12.20;;;3.70;99.90;;;;;;10593048;28;20211;-82
2022/12/09 08:12:51;;;;;;;13.30;12.03;;;3.80;99.90;;;;;;10544563;28;20214;-81
2022/12/09 08:17:54;;;;;;;16.40;14.70;;;3.90;99.90;;;;;;10548979;28;20215;-82
2022/12/09 08:22:56;;;;;;;16.33;14.37;;;4.00;99.90;;;;;;10589912;28;20183;-82
2022/12/09 08:28:00;;;;;;;14.37;12.80;;;4.10;99.90;;;;;;10546795;28;20215;-82
2022/12/09 08:33:02;;;;;;;15.23;13.93;;;4.30;99.90;;;;;;10574025;28;20216;-81
2022/12/09 08:38:04;;;;;;;14.40;12.90;;;4.40;99.90;;;;;;10548782;28;20204;-80
2022/12/09 08:43:08;;;;;;;15.33;13.73;;;4.50;99.90;;;;;;10522968;28;20192;-82
2022/12/09 08:48:11;;;;;;;14.23;12.90;;;4.70;99.50;;;;;;10571654;28;20217;-82
2022/12/09 08:53:13;;;;;;;16.83;13.80;;;4.70;98.70;;;;;;10561161;28;20201;-82
2022/12/09 08:58:16;;;;;;;14.83;13.40;;;4.60;99.30;;;;;;10548802;28;20251;-82
2022/12/09 09:03:18;;;;;;;16.00;14.00;;;4.60;99.90;;;;;;10586942;28;20207;-82
2022/12/09 09:08:21;;;;;;;14.73;13.20;;;4.70;99.50;;;;;;10546432;28;20216;-82
2022/12/09 09:13:25;;;;;;;16.17;14.60;;;4.70;99.50;;;;;;10583119;28;20624;-82
2022/12/09 09:18:27;;;;;;;16.20;14.50;;;4.70;99.60;;;;;;10555466;28;20261;-81
2022/12/09 09:23:29;;;;;;;17.20;13.60;;;4.80;99.70;;;;;;10577576;28;20389;-80
2022/12/09 09:28:33;;;;;;;15.20;13.40;;;4.90;99.40;;;;;;10537119;28;20273;-81
2022/12/09 09:33:35;;;;;;;22.00;17.47;;;4.90;98.80;;;;;;10552462;28;20196;-80
2022/12/09 09:38:37;;;;;;;16.23;14.67;;;4.90;98.90;;;;;;10588670;28;20326;-81
2022/12/09 09:43:41;;;;;;;16.70;15.03;;;4.90;99.60;;;;;;10549673;28;20191;-82
2022/12/09 09:48:44;;;;;;;19.17;16.20;;;5.00;99.90;;;;;;10583411;28;20244;-82
2022/12/09 09:53:50;;;;;;;16.43;14.87;;;5.00;99.90;;;;;;10576329;28;20191;-80
2022/12/09 09:59:00;;;;;;;17.20;15.40;;;5.10;99.90;;;;;;10546647;28;20277;-80
2022/12/09 10:04:12;;;;;;;18.27;16.37;;;5.20;99.70;;;;;;10583324;28;20195;-81
2022/12/09 10:09:21;;;;;;;19.17;17.03;;;5.30;99.90;;;;;;10557727;28;20704;-78
2022/12/09 10:14:36;;;;;;;18.50;16.60;;;5.30;99.50;;;;;;10590704;28;20289;-81
2022/12/09 10:19:46;;;;;;;17.80;16.00;;;5.40;98.90;;;;;;10500454;28;20665;-82
2022/12/09 10:24:51;;;;;;;17.77;16.07;;;5.40;99.30;;;;;;10485234;28;20284;-82
2022/12/09 10:30:00;;;;;;;19.00;17.00;;;5.40;99.30;;;;;;10545662;28;20247;-81
2022/12/09 10:35:13;;;;;;;18.80;16.93;;;5.50;99.90;;;;;;10505848;28;20276;-80
2022/12/09 10:40:22;;;;;;;18.73;16.90;;;5.60;98.90;;;;;;10589889;28;20207;-82
2022/12/09 10:45:25;;;;;;;19.20;17.30;;;5.60;99.70;;;;;;10553878;28;20196;-82
2022/12/09 10:50:31;;;;;;;20.03;17.10;;;5.60;98.80;;;;;;10592470;28;20322;-82
2022/12/09 10:55:37;;;;;;;20.47;18.37;;;5.60;99.10;;;;;;10581173;28;20632;-82
2022/12/09 11:00:41;;;;;;;19.00;16.90;;;5.60;99.20;;;;;;10597967;28;20203;-81
2022/12/09 11:05:43;;;;;;;18.40;16.67;;;5.60;98.50;;;;;;10563408;28;20196;-82
2022/12/09 11:10:49;;;;;;;21.87;19.60;;;5.50;98.10;;;;;;10596104;28;20252;-82
2022/12/09 11:15:58;;;;;;;21.13;18.37;;;5.50;99.90;;;;;;10560562;28;20203;-82
2022/12/09 11:21:02;;;;;;;18.77;16.97;;;5.50;99.70;;;;;;10586815;28;20295;-82
2022/12/09 11:26:06;;;;;;;18.53;16.83;;;5.50;99.90;;;;;;10549622;28;20196;-81
2022/12/09 11:31:16;;;;;;;18.97;17.17;;;5.50;99.90;;;;;;10572176;28;20253;-81
2022/12/09 11:36:21;;;;;;;20.87;17.90;;;5.60;98.30;;;;;;10551275;28;20222;-83
2022/12/09 11:46:56;;;;;;;19.47;17.40;;;5.60;99.90;;;;;;10555307;28;20218;-84
2022/12/09 11:52:02;;;;;;;19.80;17.70;;;5.70;99.90;;;;;;10590085;28;20223;-82
2022/12/09 11:57:13;;;;;;;19.73;17.27;;;5.80;99.80;;;;;;10576449;28;20195;-82
2022/12/09 12:02:28;;;;;;;20.70;18.60;;;5.90;99.30;;;;;;10585004;28;20242;-83
2022/12/09 12:07:38;;;;;;;22.63;20.30;;;5.90;99.90;;;;;;10539508;28;20203;-83
2022/12/09 12:12:46;;;;;;;21.10;18.13;;;5.90;99.10;;;;;;10582871;28;20305;-82
2022/12/09 12:17:54;;;;;;;19.90;18.00;;;5.90;99.80;;;;;;10564948;28;20188;-82
2022/12/09 12:23:15;;;;;;;20.90;18.90;;;5.90;99.90;;;;;;10553990;28;20195;-83
2022/12/09 12:28:41;;;;;;;20.60;18.50;;;5.90;99.80;;;;;;10565899;28;20226;-83
2022/12/09 12:33:57;;;;;;;20.40;18.20;;;5.90;99.90;;;;;;10570798;28;20234;-82
2022/12/09 12:39:09;;;;;;;23.27;18.20;;;5.80;99.50;;;;;;10561724;28;20573;-83
2022/12/09 12:50:33;;;;;;;21.13;18.90;;;5.80;99.90;;;;;;10581535;28;20244;-82
2022/12/09 12:55:49;;;;;;;20.60;18.50;;;5.90;99.90;;;;;;10565981;28;20203;-83
2022/12/09 13:01:03;;;;;;;21.80;19.60;;;5.80;99.50;;;;;;10573345;28;20263;-82
2022/12/09 13:06:11;;;;;;;20.80;18.80;;;5.80;99.90;;;;;;10556746;28;20704;-80
2022/12/09 13:11:19;;;;;;;19.93;18.13;;;5.80;99.90;;;;;;10577760;28;20326;-82
2022/12/09 13:16:26;;;;;;;22.07;19.70;;;5.80;99.90;;;;;;10559572;28;20241;-82
2022/12/09 13:21:29;;;;;;;22.53;20.20;;;5.80;99.90;;;;;;10564824;28;20291;-83
2022/12/09 13:26:41;;;;;;;21.00;18.90;;;5.80;99.90;;;;;;10531781;28;20222;-82
2022/12/09 13:31:50;;;;;;;21.03;18.93;;;5.90;99.90;;;;;;10587704;28;20222;-81
2022/12/09 13:36:53;;;;;;;20.80;18.80;;;5.90;99.90;;;;;;10551914;28;20191;-81
2022/12/09 13:47:24;;;;;;;22.23;19.93;;;5.90;99.90;;;;;;10548636;28;20207;-79
2022/12/09 13:52:51;;;;;;;23.50;20.97;;;5.90;99.90;;;;;;10546296;28;20766;-79
2022/12/09 13:58:01;;;;;;;23.80;21.30;;;5.90;99.90;;;;;;10571954;28;20521;-79
2022/12/09 14:03:20;;;;;;;23.80;21.50;;;5.90;99.90;;;;;;10577905;28;20195;-78
2022/12/09 14:08:26;;;;;;;23.87;21.40;;;5.90;99.90;;;;;;10536616;28;20454;-80
2022/12/09 14:13:30;;;;;;;24.43;21.73;;;5.90;99.90;;;;;;10578698;28;20187;-78
2022/12/09 14:18:33;;;;;;;25.57;22.77;;;5.90;99.90;;;;;;10546723;28;20288;-79
2022/12/09 14:23:39;;;;;;;23.77;21.17;;;5.80;99.90;;;;;;10612205;28;20191;-82
2022/12/09 14:28:59;;;;;;;25.70;23.10;;;5.80;99.90;;;;;;10561239;28;20285;-80
2022/12/09 14:34:18;;;;;;;28.70;25.70;;;5.80;99.90;;;;;;10513394;28;20184;-80
2022/12/09 14:39:29;;;;;;;25.70;23.10;;;5.80;99.90;;;;;;10591888;28;20219;-79
2022/12/09 14:44:34;;;;;;;26.80;24.00;;;5.80;99.90;;;;;;10545720;28;20682;-79
2022/12/09 14:49:37;;;;;;;26.70;23.30;;;5.70;99.90;;;;;;10584248;28;20227;-78
2022/12/09 14:54:44;;;;;;;29.63;26.50;;;5.70;99.90;;;;;;10563400;28;20225;-78
2022/12/09 14:59:49;;;;;;;28.67;25.57;;;5.70;99.90;;;;;;10545768;28;20231;-78
2022/12/09 15:04:52;;;;;;;29.77;26.63;;;5.70;99.90;;;;;;10573125;28;20307;-81
2022/12/09 15:09:58;;;;;;;29.60;26.43;;;5.70;99.90;;;;;;10518009;28;20225;-82
2022/12/09 15:15:06;;;;;;;28.87;25.83;;;5.60;99.90;;;;;;10528762;28;20199;-81
2022/12/09 15:20:19;;;;;;;32.67;28.00;;;5.50;99.90;;;;;;10548064;28;20216;-81
2022/12/09 15:25:23;;;;;;;32.57;27.17;;;5.50;99.90;;;;;;10548698;28;20204;-82
2022/12/09 15:30:29;;;;;;;34.23;28.37;;;5.50;99.90;;;;;;10531912;28;20231;-81
2022/12/09 15:35:33;;;;;;;35.30;29.57;;;5.40;99.90;;;;;;10535194;28;20203;-81
2022/12/09 15:42:05;;;;;;;36.50;29.97;;;5.40;99.90;;;;;;10536729;28;20587;-80
2022/12/09 15:46:00;;;;;;;33.93;30.30;;;5.40;99.90;;;;;;10523769;28;20223;-78
2022/12/09 15:51:07;;;;;;;34.70;30.20;;;5.40;99.90;;;;;;10504602;28;20318;-81
2022/12/09 15:56:15;;;;;;;34.30;29.20;;;5.40;99.90;;;;;;10546187;28;20677;-82
2022/12/09 16:01:21;;;;;;;34.40;30.57;;;5.40;99.90;;;;;;10576585;27;20245;-82
2022/12/09 16:06:26;;;;;;;32.93;27.70;;;5.40;99.90;;;;;;10553647;28;20199;-82
2022/12/09 16:11:38;;;;;;;35.87;30.00;;;5.40;99.90;;;;;;10517815;28;20549;-82
2022/12/09 16:16:44;;;;;;;36.10;30.40;;;5.50;99.90;;;;;;10575551;28;20215;-82
2022/12/09 16:21:48;;;;;;;40.37;33.90;;;5.60;99.90;;;;;;10554822;28;20241;-81
2022/12/09 16:26:57;;;;;;;38.53;31.67;;;5.60;99.90;;;;;;10562890;28;20207;-79
2022/12/09 16:32:22;;;;;;;38.63;32.60;;;5.60;99.90;;;;;;10566882;28;20219;-82
2022/12/09 16:37:30;;;;;;;39.90;32.90;;;5.60;99.90;;;;;;10561436;28;20195;-82
2022/12/09 16:42:34;;;;;;;41.03;33.40;;;5.70;99.90;;;;;;10560933;28;20211;-82
2022/12/09 16:47:36;;;;;;;39.03;32.40;;;5.70;99.90;;;;;;10579404;28;20214;-82
2022/12/09 16:52:39;;;;;;;39.53;32.37;;;5.70;99.90;;;;;;10550662;28;20216;-82
2022/12/09 16:57:42;;;;;;;37.90;32.00;;;5.70;99.90;;;;;;10562280;28;20244;-81
2022/12/09 17:02:50;;;;;;;42.40;34.80;;;5.70;99.90;;;;;;10586482;28;20195;-82
2022/12/09 17:07:52;;;;;;;41.53;35.30;;;5.70;99.90;;;;;;10538743;28;20211;-81
2022/12/09 17:12:55;;;;;;;41.80;33.50;;;5.70;99.90;;;;;;10593682;28;20207;-79
2022/12/09 17:17:58;;;;;;;42.00;35.67;;;5.70;99.90;;;;;;10593410;28;20659;-78
2022/12/09 17:23:00;;;;;;;43.87;33.67;;;5.70;99.90;;;;;;10613662;28;20188;-77
2022/12/09 17:28:06;;;;;;;41.80;35.00;;;5.80;99.90;;;;;;10590036;28;20253;-80
2022/12/09 17:33:21;;;;;;;41.53;34.43;;;5.80;99.90;;;;;;10590059;28;20175;-81
2022/12/09 17:38:42;;;;;;;45.27;35.50;;;5.80;99.90;;;;;;10577954;28;20219;-81
2022/12/09 17:43:59;;;;;;;45.10;35.17;;;5.80;99.90;;;;;;10557176;28;20223;-81
2022/12/09 17:49:02;;;;;;;51.33;38.20;;;5.80;99.90;;;;;;10566332;28;20238;-81
2022/12/09 17:54:05;;;;;;;44.23;35.57;;;5.80;99.90;;;;;;10549343;28;20918;-82
2022/12/09 17:59:11;;;;;;;46.77;38.40;;;5.80;99.90;;;;;;10558802;28;20783;-80
2022/12/09 18:04:14;;;;;;;46.20;35.43;;;5.80;99.90;;;;;;10569649;28;20199;-82
2022/12/09 18:09:21;;;;;;;41.63;34.17;;;5.80;99.90;;;;;;10540710;28;20734;-82
2022/12/09 18:14:25;;;;;;;43.27;35.90;;;5.80;99.90;;;;;;10571802;28;20289;-79
2022/12/09 18:19:28;;;;;;;44.53;35.37;;;5.80;99.90;;;;;;10558024;28;20214;-81
2022/12/09 18:24:31;;;;;;;44.80;36.70;;;5.90;99.90;;;;;;10566299;28;20191;-78
2022/12/09 18:29:36;;;;;;;46.27;37.10;;;5.90;99.90;;;;;;10553606;28;20257;-79
2022/12/09 19:11:43;;;;;;;40.87;35.10;;;5.90;99.90;;;;;;10450612;28;20309;-83
2022/12/09 19:16:46;;;;;;;44.13;35.57;;;5.90;99.90;;;;;;10621452;27;20202;-82
2022/12/09 19:41:19;;;;;;;44.40;38.00;;;6.00;99.90;;;;;;10465380;22;20304;-83
2022/12/09 19:46:22;;;;;;;46.53;38.57;;;6.00;99.90;;;;;;10522384;28;20278;-83
2022/12/09 19:51:25;;;;;;;48.40;39.10;;;6.00;99.90;;;;;;10471341;28;20340;-81
2022/12/09 19:56:29;;;;;;;48.27;37.97;;;6.00;99.90;;;;;;10467868;28;20284;-84
2022/12/09 20:19:36;;;;;;;46.47;38.27;;;5.90;99.90;;;;;;10296351;28;20230;-82
2022/12/09 20:31:37;;;;;;;46.27;36.83;;;5.80;99.90;;;;;;10472743;22;20230;-82
2022/12/09 20:36:42;;;;;;;44.43;35.73;;;5.80;99.90;;;;;;10552809;28;20207;-82
2022/12/09 20:41:44;;;;;;;45.13;36.03;;;5.80;99.90;;;;;;10532123;28;20212;-83
2022/12/09 20:47:23;;;;;;;46.17;38.97;;;5.80;99.90;;;;;;10514705;28;20200;-82
2022/12/09 20:53:04;;;;;;;45.53;37.10;;;5.80;99.90;;;;;;10529914;28;20722;-78
2022/12/09 21:54:35;;;;;;;34.67;30.73;;;5.90;99.90;;;;;;10155056;28;21045;-84
2022/12/09 22:17:37;;;;;;;36.00;32.10;;;6.00;99.90;;;;;;10273253;28;20228;-79
2022/12/09 22:22:47;;;;;;;39.00;32.80;;;6.00;99.90;;;;;;10536844;28;20554;-79
2022/12/09 22:27:50;;;;;;;35.47;30.80;;;6.00;99.90;;;;;;10523798;28;20688;-80
2022/12/09 22:39:44;;;;;;;34.03;30.43;;;6.00;99.90;;;;;;10347097;28;20756;-82
2022/12/09 22:45:12;;;;;;;34.10;30.50;;;6.00;99.90;;;;;;10468869;28;20211;-81
2022/12/09 22:51:24;;;;;;;34.47;30.10;;;6.00;99.90;;;;;;10439218;28;20598;-82
2022/12/09 22:56:28;;;;;;;35.13;30.47;;;6.00;99.90;;;;;;10514888;28;20233;-82
2022/12/09 23:01:34;;;;;;;34.70;30.90;;;5.90;99.90;;;;;;10529351;28;20762;-82
2022/12/09 23:06:38;;;;;;;33.57;28.70;;;6.00;99.90;;;;;;10547474;28;20191;-83
2022/12/09 23:11:41;;;;;;;33.17;29.60;;;5.90;99.90;;;;;;10537844;28;20588;-81
2022/12/09 23:16:44;;;;;;;33.00;29.50;;;5.90;99.90;;;;;;10498969;28;20291;-82
2022/12/09 23:21:46;;;;;;;32.37;28.97;;;5.80;99.90;;;;;;10515871;28;20212;-82
2022/12/09 23:26:50;;;;;;;34.63;30.90;;;5.80;99.90;;;;;;10504803;28;20247;-83
2022/12/09 23:31:52;;;;;;;34.07;29.27;;;5.90;99.90;;;;;;10513261;28;20237;-82
2022/12/09 23:36:54;;;;;;;33.03;29.53;;;5.90;99.90;;;;;;10488898;28;20197;-82
2022/12/09 23:42:08;;;;;;;36.10;32.40;;;5.90;99.90;;;;;;10519924;28;20247;-83
2022/12/09 23:47:20;;;;;;;33.63;30.07;;;6.00;99.90;;;;;;10503459;28;20669;-81
2022/12/09 23:52:40;;;;;;;33.03;29.63;;;5.90;99.90;;;;;;10517916;28;20310;-80
2022/12/09 23:57:47;;;;;;;34.70;30.97;;;6.00;99.90;;;;;;10510824;28;20205;-81
